createdAt,value
2017-10-03T00:00:50.116Z,0
2017-10-03T00:01:49.784Z,0
2017-10-03T00:02:50.119Z,0
2017-10-03T00:03:50.101Z,0
2017-10-03T00:04:49.766Z,0
2017-10-03T00:05:50.086Z,0
2017-10-03T00:06:50.092Z,0
2017-10-03T00:07:49.429Z,0
2017-10-03T00:08:50.064Z,0
2017-10-03T00:09:50.052Z,0
2017-10-03T00:10:49.732Z,0
2017-10-03T00:11:49.720Z,0
2017-10-03T00:12:49.717Z,0
2017-10-03T00:13:49.708Z,0
2017-10-03T00:14:49.704Z,0
2017-10-03T00:15:49.690Z,0
2017-10-03T00:16:49.698Z,0
2017-10-03T00:17:50.009Z,0
2017-10-03T00:18:49.361Z,0
2017-10-03T00:19:49.670Z,0
2017-10-03T00:20:49.987Z,0
2017-10-03T00:21:49.663Z,0
2017-10-03T00:22:49.974Z,0
2017-10-03T00:23:49.969Z,0
2017-10-03T00:24:49.959Z,0
2017-10-03T00:25:49.970Z,0
2017-10-03T00:26:49.309Z,0
2017-10-03T00:27:49.623Z,0
2017-10-03T00:28:49.620Z,0
2017-10-03T00:29:49.612Z,0
2017-10-03T00:30:49.603Z,0
2017-10-03T00:31:49.920Z,0
2017-10-03T00:32:49.914Z,0
2017-10-03T00:33:49.265Z,0
2017-10-03T00:34:49.257Z,0
2017-10-03T00:35:49.577Z,0
2017-10-03T00:36:49.571Z,0
2017-10-03T00:37:49.886Z,0
2017-10-03T00:38:49.554Z,0
2017-10-03T00:39:49.965Z,0
2017-10-03T00:40:49.864Z,0
2017-10-03T00:41:49.537Z,0
2017-10-03T00:42:49.848Z,0
2017-10-03T00:43:49.523Z,0
2017-10-03T00:44:49.517Z,0
2017-10-03T00:45:49.836Z,0
2017-10-03T00:46:49.828Z,0
2017-10-03T00:47:49.496Z,0
2017-10-03T00:48:49.812Z,0
2017-10-03T00:49:49.798Z,0
2017-10-03T00:50:49.795Z,0
2017-10-03T00:51:49.784Z,0
2017-10-03T00:52:49.783Z,0
2017-10-03T00:53:49.138Z,0
2017-10-03T00:54:49.767Z,0
2017-10-03T00:55:49.768Z,0
2017-10-03T00:56:49.437Z,0
2017-10-03T00:57:49.432Z,0
2017-10-03T00:58:49.742Z,0
2017-10-03T00:59:49.738Z,0
2017-10-03T01:00:49.409Z,0
2017-10-03T01:01:49.744Z,0
2017-10-03T01:02:49.717Z,0
2017-10-03T01:03:49.716Z,0
2017-10-03T01:04:49.066Z,0
2017-10-03T01:05:49.701Z,0
2017-10-03T01:06:49.684Z,0
2017-10-03T01:07:49.362Z,0
2017-10-03T01:08:49.676Z,0
2017-10-03T01:09:49.349Z,0
2017-10-03T01:10:49.667Z,0
2017-10-03T01:11:49.015Z,0
2017-10-03T01:12:49.647Z,0
2017-10-03T01:13:49.651Z,0
2017-10-03T01:14:49.318Z,0
2017-10-03T01:15:49.624Z,0
2017-10-03T01:16:49.626Z,0
2017-10-03T01:17:49.299Z,0
2017-10-03T01:18:49.611Z,0
2017-10-03T01:19:49.605Z,0
2017-10-03T01:20:49.598Z,0
2017-10-03T01:21:49.592Z,0
2017-10-03T01:22:49.604Z,0
2017-10-03T01:23:49.576Z,0
2017-10-03T01:24:49.569Z,0
2017-10-03T01:25:49.559Z,0
2017-10-03T01:26:49.238Z,0
2017-10-03T01:27:49.548Z,0
2017-10-03T01:28:49.544Z,0
2017-10-03T01:29:49.534Z,0
2017-10-03T01:30:49.529Z,0
2017-10-03T01:31:49.523Z,0
2017-10-03T01:32:49.197Z,0
2017-10-03T01:33:49.507Z,0
2017-10-03T01:34:49.182Z,0
2017-10-03T01:35:48.856Z,0
2017-10-03T01:36:49.167Z,0
2017-10-03T01:37:49.482Z,0
2017-10-03T01:38:49.473Z,0
2017-10-03T01:39:49.474Z,0
2017-10-03T01:40:49.459Z,0
2017-10-03T01:41:49.137Z,0
2017-10-03T01:42:48.815Z,0
2017-10-03T01:43:49.116Z,0
2017-10-03T01:44:49.120Z,0
2017-10-03T01:45:49.431Z,0
2017-10-03T01:46:49.418Z,0
2017-10-03T01:47:49.095Z,0
2017-10-03T01:48:49.412Z,0
2017-10-03T01:49:49.080Z,0
2017-10-03T01:50:49.394Z,0
2017-10-03T01:51:49.392Z,0
2017-10-03T01:52:48.744Z,0
2017-10-03T01:53:49.368Z,0
2017-10-03T01:54:48.729Z,0
2017-10-03T01:55:49.042Z,0
2017-10-03T01:56:49.044Z,0
2017-10-03T01:57:49.352Z,0
2017-10-03T01:58:49.338Z,0
2017-10-03T01:59:49.013Z,0
2017-10-03T02:00:49.018Z,0
2017-10-03T02:01:49.318Z,0
2017-10-03T02:02:48.993Z,0
2017-10-03T02:03:49.011Z,0
2017-10-03T02:04:48.988Z,0
2017-10-03T02:05:49.290Z,0
2017-10-03T02:06:49.281Z,0
2017-10-03T02:07:49.279Z,0
2017-10-03T02:08:49.270Z,0
2017-10-03T02:09:49.267Z,0
2017-10-03T02:10:49.254Z,0
2017-10-03T02:11:49.247Z,0
2017-10-03T02:12:48.919Z,0
2017-10-03T02:13:49.237Z,0
2017-10-03T02:14:49.226Z,0
2017-10-03T02:15:49.223Z,0
2017-10-03T02:16:48.895Z,0
2017-10-03T02:17:49.206Z,0
2017-10-03T02:18:48.878Z,0
2017-10-03T02:19:49.189Z,0
2017-10-03T02:20:49.189Z,0
2017-10-03T02:21:49.176Z,0
2017-10-03T02:22:49.169Z,0
2017-10-03T02:23:48.841Z,0
2017-10-03T02:24:49.155Z,0
2017-10-03T02:25:48.834Z,0
2017-10-03T02:26:48.825Z,0
2017-10-03T02:27:49.141Z,0
2017-10-03T02:28:48.812Z,0
2017-10-03T02:29:48.805Z,0
2017-10-03T02:30:49.128Z,0
2017-10-03T02:31:48.782Z,0
2017-10-03T02:32:49.116Z,0
2017-10-03T02:33:49.118Z,0
2017-10-03T02:34:48.450Z,0
2017-10-03T02:35:49.084Z,0
2017-10-03T02:36:48.756Z,0
2017-10-03T02:37:48.758Z,0
2017-10-03T02:38:49.059Z,0
2017-10-03T02:39:48.739Z,0
2017-10-03T02:40:49.051Z,0
2017-10-03T02:41:49.043Z,0
2017-10-03T02:42:49.032Z,0
2017-10-03T02:43:49.027Z,0
2017-10-03T02:44:49.031Z,0
2017-10-03T02:45:49.012Z,0
2017-10-03T02:46:49.008Z,0
2017-10-03T02:47:48.676Z,0
2017-10-03T02:48:48.992Z,0
2017-10-03T02:49:48.986Z,0
2017-10-03T02:50:48.654Z,0
2017-10-03T02:51:48.651Z,0
2017-10-03T02:52:48.634Z,0
2017-10-03T02:53:48.949Z,0
2017-10-03T02:54:48.314Z,0
2017-10-03T02:55:48.939Z,0
2017-10-03T02:56:48.938Z,0
2017-10-03T02:57:48.925Z,0
2017-10-03T02:58:48.597Z,0
2017-10-03T02:59:48.589Z,0
2017-10-03T03:00:48.580Z,0
2017-10-03T03:01:48.576Z,0
2017-10-03T03:02:48.892Z,0
2017-10-03T03:03:48.562Z,0
2017-10-03T03:04:48.871Z,0
2017-10-03T03:05:48.229Z,0
2017-10-03T03:06:48.861Z,0
2017-10-03T03:07:48.849Z,0
2017-10-03T03:08:48.205Z,0
2017-10-03T03:09:48.831Z,0
2017-10-03T03:10:48.510Z,0
2017-10-03T03:11:48.830Z,0
2017-10-03T03:12:48.502Z,0
2017-10-03T03:13:48.493Z,0
2017-10-03T03:14:48.800Z,0
2017-10-03T03:15:48.790Z,0
2017-10-03T03:16:48.786Z,0
2017-10-03T03:17:48.779Z,0
2017-10-03T03:18:48.454Z,0
2017-10-03T03:19:48.443Z,0
2017-10-03T03:20:48.441Z,0
2017-10-03T03:21:48.749Z,0
2017-10-03T03:22:47.782Z,0
2017-10-03T03:23:48.733Z,0
2017-10-03T03:24:48.726Z,0
2017-10-03T03:25:48.400Z,0
2017-10-03T03:26:48.396Z,0
2017-10-03T03:27:48.704Z,0
2017-10-03T03:28:48.379Z,0
2017-10-03T03:29:48.692Z,0
2017-10-03T03:30:48.694Z,0
2017-10-03T03:31:48.672Z,0
2017-10-03T03:32:48.665Z,0
2017-10-03T03:33:48.665Z,0
2017-10-03T03:34:48.658Z,0
2017-10-03T03:35:48.646Z,0
2017-10-03T03:36:48.321Z,0
2017-10-03T03:37:48.631Z,0
2017-10-03T03:38:48.628Z,0
2017-10-03T03:39:48.619Z,0
2017-10-03T03:40:48.294Z,0
2017-10-03T03:41:48.607Z,0
2017-10-03T03:42:48.284Z,0
2017-10-03T03:43:48.592Z,0
2017-10-03T03:44:48.590Z,0
2017-10-03T03:45:48.569Z,0
2017-10-03T03:46:48.247Z,0
2017-10-03T03:47:48.556Z,0
2017-10-03T03:48:48.548Z,0
2017-10-03T03:49:48.543Z,0
2017-10-03T03:50:48.533Z,0
2017-10-03T03:51:48.209Z,0
2017-10-03T03:52:48.553Z,0
2017-10-03T03:53:48.194Z,0
2017-10-03T03:54:48.531Z,0
2017-10-03T03:55:48.505Z,0
2017-10-03T03:56:48.495Z,0
2017-10-03T03:57:48.165Z,0
2017-10-03T03:58:48.473Z,0
2017-10-03T03:59:48.150Z,0
2017-10-03T04:00:48.145Z,0
2017-10-03T04:01:47.818Z,0
2017-10-03T04:02:48.447Z,0
2017-10-03T04:03:48.451Z,0
2017-10-03T04:04:48.435Z,0
2017-10-03T04:05:48.105Z,0
2017-10-03T04:06:47.775Z,0
2017-10-03T04:07:48.413Z,0
2017-10-03T04:08:48.408Z,0
2017-10-03T04:09:48.398Z,0
2017-10-03T04:10:48.080Z,0
2017-10-03T04:11:48.065Z,0
2017-10-03T04:12:48.051Z,0
2017-10-03T04:13:48.366Z,0
2017-10-03T04:14:48.367Z,0
2017-10-03T04:15:48.352Z,0
2017-10-03T04:16:48.366Z,0
2017-10-03T04:17:48.337Z,0
2017-10-03T04:18:48.343Z,0
2017-10-03T04:19:48.334Z,0
2017-10-03T04:20:48.323Z,0
2017-10-03T04:21:48.309Z,0
2017-10-03T04:22:47.667Z,0
2017-10-03T04:23:48.292Z,0
2017-10-03T04:24:48.291Z,0
2017-10-03T04:25:48.281Z,0
2017-10-03T04:26:47.978Z,0
2017-10-03T04:27:48.272Z,0
2017-10-03T04:28:48.255Z,0
2017-10-03T04:29:48.250Z,0
2017-10-03T04:30:48.252Z,0
2017-10-03T04:31:48.236Z,0
2017-10-03T04:32:47.911Z,0
2017-10-03T04:33:47.900Z,0
2017-10-03T04:34:47.899Z,0
2017-10-03T04:35:48.204Z,0
2017-10-03T04:36:48.197Z,0
2017-10-03T04:37:48.190Z,0
2017-10-03T04:38:48.188Z,0
2017-10-03T04:39:47.853Z,0
2017-10-03T04:40:48.163Z,0
2017-10-03T04:41:48.167Z,0
2017-10-03T04:42:48.153Z,0
2017-10-03T04:43:48.140Z,0
2017-10-03T04:44:48.134Z,0
2017-10-03T04:45:48.136Z,0
2017-10-03T04:46:47.486Z,0
2017-10-03T04:47:48.122Z,0
2017-10-03T04:48:48.106Z,0
2017-10-03T04:49:47.788Z,0
2017-10-03T04:50:48.091Z,0
2017-10-03T04:51:48.089Z,0
2017-10-03T04:52:48.088Z,0
2017-10-03T04:53:48.069Z,0
2017-10-03T04:54:48.062Z,0
2017-10-03T04:55:47.740Z,0
2017-10-03T04:56:48.056Z,0
2017-10-03T04:57:48.042Z,0
2017-10-03T04:58:47.716Z,0
2017-10-03T04:59:48.026Z,0
2017-10-03T05:00:48.019Z,0
2017-10-03T05:01:47.716Z,0
2017-10-03T05:02:47.693Z,0
2017-10-03T05:03:48.009Z,0
2017-10-03T05:04:47.671Z,0
2017-10-03T05:05:47.676Z,0
2017-10-03T05:06:47.658Z,0
2017-10-03T05:07:47.009Z,0
2017-10-03T05:08:47.962Z,0
2017-10-03T05:09:47.634Z,0
2017-10-03T05:10:47.630Z,0
2017-10-03T05:11:47.945Z,0
2017-10-03T05:12:47.612Z,5
2017-10-03T05:13:47.924Z,5
2017-10-03T05:14:47.917Z,5
2017-10-03T05:15:47.589Z,5
2017-10-03T05:16:47.905Z,10
2017-10-03T05:17:47.902Z,10
2017-10-03T05:18:47.571Z,10
2017-10-03T05:19:47.878Z,10
2017-10-03T05:20:47.874Z,15
2017-10-03T05:21:47.549Z,15
2017-10-03T05:22:47.535Z,15
2017-10-03T05:23:47.856Z,20
2017-10-03T05:24:47.839Z,25
2017-10-03T05:25:47.870Z,25
2017-10-03T05:26:47.515Z,30
2017-10-03T05:27:47.499Z,30
2017-10-03T05:28:47.502Z,35
2017-10-03T05:29:47.164Z,35
2017-10-03T05:30:47.796Z,40
2017-10-03T05:31:47.481Z,45
2017-10-03T05:32:47.784Z,50
2017-10-03T05:33:47.772Z,50
2017-10-03T05:34:47.797Z,55
2017-10-03T05:35:47.450Z,65
2017-10-03T05:36:47.758Z,65
2017-10-03T05:37:47.776Z,65
2017-10-03T05:38:47.739Z,60
2017-10-03T05:39:47.735Z,55
2017-10-03T05:40:47.722Z,55
2017-10-03T05:41:47.724Z,60
2017-10-03T05:42:47.721Z,65
2017-10-03T05:43:47.387Z,65
2017-10-03T05:44:47.703Z,75
2017-10-03T05:45:47.691Z,80
2017-10-03T05:46:47.687Z,90
2017-10-03T05:47:47.680Z,90
2017-10-03T05:48:47.671Z,90
2017-10-03T05:49:47.341Z,90
2017-10-03T05:50:47.338Z,90
2017-10-03T05:51:47.345Z,100
2017-10-03T05:52:47.324Z,95
2017-10-03T05:53:47.646Z,90
2017-10-03T05:54:47.306Z,85
2017-10-03T05:55:47.623Z,75
2017-10-03T05:56:47.303Z,85
2017-10-03T05:57:46.966Z,85
2017-10-03T05:58:47.276Z,85
2017-10-03T05:59:47.273Z,85
2017-10-03T06:00:47.270Z,85
2017-10-03T06:01:47.264Z,85
2017-10-03T06:02:47.573Z,90
2017-10-03T06:03:47.244Z,90
2017-10-03T06:04:47.565Z,95
2017-10-03T06:05:47.548Z,100
2017-10-03T06:06:47.645Z,105
2017-10-03T06:07:46.901Z,110
2017-10-03T06:08:47.206Z,110
2017-10-03T06:09:47.535Z,110
2017-10-03T06:10:47.518Z,105
2017-10-03T06:11:47.517Z,110
2017-10-03T06:12:47.505Z,115
2017-10-03T06:13:47.183Z,115
2017-10-03T06:14:47.497Z,120
2017-10-03T06:15:46.850Z,130
2017-10-03T06:16:47.161Z,135
2017-10-03T06:17:47.158Z,130
2017-10-03T06:18:47.147Z,125
2017-10-03T06:19:47.147Z,115
2017-10-03T06:20:47.135Z,110
2017-10-03T06:21:47.387Z,110
2017-10-03T06:22:47.121Z,110
2017-10-03T06:23:47.112Z,115
2017-10-03T06:24:46.789Z,110
2017-10-03T06:25:47.423Z,115
2017-10-03T06:26:47.414Z,115
2017-10-03T06:27:47.089Z,120
2017-10-03T06:28:47.399Z,130
2017-10-03T06:29:47.077Z,135
2017-10-03T06:30:47.085Z,145
2017-10-03T06:31:47.061Z,155
2017-10-03T06:32:47.409Z,160
2017-10-03T06:33:47.375Z,165
2017-10-03T06:34:47.044Z,160
2017-10-03T06:35:47.364Z,155
2017-10-03T06:36:47.352Z,155
2017-10-03T06:37:47.137Z,160
2017-10-03T06:38:47.341Z,155
2017-10-03T06:39:47.343Z,160
2017-10-03T06:40:47.331Z,160
2017-10-03T06:41:47.328Z,165
2017-10-03T06:42:47.002Z,155
2017-10-03T06:43:46.994Z,165
2017-10-03T06:44:46.984Z,145
2017-10-03T06:45:46.660Z,145
2017-10-03T06:46:47.290Z,130
2017-10-03T06:47:47.297Z,125
2017-10-03T06:48:46.962Z,125
2017-10-03T06:49:47.276Z,120
2017-10-03T06:50:47.271Z,120
2017-10-03T06:51:47.261Z,120
2017-10-03T06:52:47.253Z,120
2017-10-03T06:53:46.928Z,115
2017-10-03T06:54:47.242Z,115
2017-10-03T06:55:47.244Z,115
2017-10-03T06:56:47.233Z,115
2017-10-03T06:57:46.906Z,115
2017-10-03T06:58:47.222Z,115
2017-10-03T06:59:47.220Z,110
2017-10-03T07:00:47.205Z,115
2017-10-03T07:01:46.885Z,120
2017-10-03T07:02:47.198Z,125
2017-10-03T07:03:47.189Z,130
2017-10-03T07:04:47.185Z,145
2017-10-03T07:05:47.181Z,150
2017-10-03T07:06:47.175Z,165
2017-10-03T07:07:47.164Z,180
2017-10-03T07:08:46.525Z,205
2017-10-03T07:09:46.834Z,225
2017-10-03T07:10:46.827Z,240
2017-10-03T07:11:46.828Z,255
2017-10-03T07:12:47.140Z,280
2017-10-03T07:13:47.130Z,280
2017-10-03T07:14:47.121Z,270
2017-10-03T07:15:47.124Z,265
2017-10-03T07:16:47.114Z,310
2017-10-03T07:17:47.104Z,310
2017-10-03T07:18:47.106Z,300
2017-10-03T07:19:46.464Z,295
2017-10-03T07:20:47.097Z,320
2017-10-03T07:21:46.761Z,360
2017-10-03T07:22:46.439Z,375
2017-10-03T07:23:46.756Z,410
2017-10-03T07:24:46.746Z,500
2017-10-03T07:25:46.746Z,525
2017-10-03T07:26:47.054Z,495
2017-10-03T07:27:47.060Z,500
2017-10-03T07:28:47.049Z,555
2017-10-03T07:29:47.046Z,475
2017-10-03T07:30:46.720Z,445
2017-10-03T07:31:47.035Z,360
2017-10-03T07:32:46.387Z,335
2017-10-03T07:33:46.705Z,335
2017-10-03T07:34:47.015Z,350
2017-10-03T07:35:46.692Z,345
2017-10-03T07:36:47.016Z,350
2017-10-03T07:37:47.010Z,355
2017-10-03T07:38:47.001Z,360
2017-10-03T07:39:46.354Z,355
2017-10-03T07:40:46.991Z,355
2017-10-03T07:41:46.992Z,340
2017-10-03T07:42:46.985Z,325
2017-10-03T07:43:46.978Z,305
2017-10-03T07:44:46.978Z,290
2017-10-03T07:45:46.015Z,285
2017-10-03T07:46:46.966Z,290
2017-10-03T07:47:46.960Z,305
2017-10-03T07:48:46.638Z,360
2017-10-03T07:49:46.969Z,365
2017-10-03T07:50:46.626Z,360
2017-10-03T07:51:46.943Z,335
2017-10-03T07:52:46.940Z,335
2017-10-03T07:53:46.615Z,320
2017-10-03T07:54:46.620Z,340
2017-10-03T07:55:46.932Z,340
2017-10-03T07:56:45.968Z,280
2017-10-03T07:57:46.602Z,280
2017-10-03T07:58:46.596Z,330
2017-10-03T07:59:46.920Z,400
2017-10-03T08:00:46.596Z,430
2017-10-03T08:01:46.913Z,400
2017-10-03T08:02:46.264Z,400
2017-10-03T08:03:46.578Z,400
2017-10-03T08:04:46.576Z,425
2017-10-03T08:05:46.254Z,435
2017-10-03T08:06:46.880Z,405
2017-10-03T08:07:46.560Z,405
2017-10-03T08:08:46.239Z,385
2017-10-03T08:09:46.866Z,380
2017-10-03T08:10:46.874Z,365
2017-10-03T08:11:46.864Z,340
2017-10-03T08:12:46.863Z,340
2017-10-03T08:13:46.854Z,370
2017-10-03T08:14:46.852Z,420
2017-10-03T08:15:46.524Z,435
2017-10-03T08:16:46.844Z,430
2017-10-03T08:17:46.845Z,505
2017-10-03T08:18:46.516Z,475
2017-10-03T08:19:46.847Z,435
2017-10-03T08:20:46.829Z,390
2017-10-03T08:21:46.503Z,400
2017-10-03T08:22:46.852Z,315
2017-10-03T08:23:46.178Z,305
2017-10-03T08:24:46.493Z,285
2017-10-03T08:25:46.815Z,275
2017-10-03T08:26:46.488Z,265
2017-10-03T08:27:46.486Z,305
2017-10-03T08:28:46.482Z,470
2017-10-03T08:29:46.796Z,275
2017-10-03T08:30:46.790Z,245
2017-10-03T08:31:46.794Z,315
2017-10-03T08:32:46.790Z,375
2017-10-03T08:33:46.143Z,355
2017-10-03T08:34:46.777Z,440
2017-10-03T08:35:46.775Z,495
2017-10-03T08:36:46.455Z,495
2017-10-03T08:37:46.138Z,500
2017-10-03T08:38:46.456Z,485
2017-10-03T08:39:46.125Z,485
2017-10-03T08:40:46.445Z,505
2017-10-03T08:41:46.430Z,480
2017-10-03T08:42:46.434Z,505
2017-10-03T08:43:46.108Z,485
2017-10-03T08:44:46.114Z,510
2017-10-03T08:45:46.742Z,480
2017-10-03T08:46:46.448Z,440
2017-10-03T08:47:47.036Z,445
2017-10-03T08:48:46.092Z,440
2017-10-03T08:49:45.773Z,370
2017-10-03T08:50:46.729Z,415
2017-10-03T08:51:46.721Z,330
2017-10-03T08:52:45.764Z,440
2017-10-03T08:53:46.079Z,420
2017-10-03T08:54:46.394Z,485
2017-10-03T08:55:46.392Z,520
2017-10-03T08:56:46.392Z,475
2017-10-03T08:57:46.383Z,415
2017-10-03T08:58:46.706Z,450
2017-10-03T08:59:46.131Z,550
2017-10-03T09:00:45.739Z,520
2017-10-03T09:01:46.384Z,490
2017-10-03T09:02:46.058Z,515
2017-10-03T09:03:46.391Z,455
2017-10-03T09:04:46.688Z,360
2017-10-03T09:05:46.055Z,400
2017-10-03T09:06:46.362Z,465
2017-10-03T09:07:45.726Z,500
2017-10-03T09:08:45.722Z,420
2017-10-03T09:09:46.048Z,405
2017-10-03T09:10:46.359Z,505
2017-10-03T09:11:46.673Z,485
2017-10-03T09:12:46.353Z,400
2017-10-03T09:13:46.675Z,360
2017-10-03T09:14:46.668Z,380
2017-10-03T09:15:46.693Z,415
2017-10-03T09:16:46.346Z,460
2017-10-03T09:17:46.337Z,490
2017-10-03T09:18:46.334Z,480
2017-10-03T09:19:46.658Z,570
2017-10-03T09:20:46.331Z,445
2017-10-03T09:21:46.655Z,375
2017-10-03T09:22:46.650Z,375
2017-10-03T09:23:46.644Z,325
2017-10-03T09:24:46.641Z,320
2017-10-03T09:25:46.321Z,355
2017-10-03T09:26:46.003Z,340
2017-10-03T09:27:46.635Z,335
2017-10-03T09:28:46.321Z,330
2017-10-03T09:29:46.310Z,450
2017-10-03T09:30:46.633Z,355
2017-10-03T09:31:46.632Z,240
2017-10-03T09:32:46.622Z,290
2017-10-03T09:33:45.984Z,305
2017-10-03T09:34:45.661Z,210
2017-10-03T09:35:46.617Z,290
2017-10-03T09:36:46.296Z,295
2017-10-03T09:37:46.299Z,230
2017-10-03T09:38:46.298Z,270
2017-10-03T09:39:46.603Z,400
2017-10-03T09:40:46.287Z,390
2017-10-03T09:41:45.964Z,450
2017-10-03T09:42:46.287Z,345
2017-10-03T09:43:46.284Z,335
2017-10-03T09:44:46.645Z,330
2017-10-03T09:45:46.593Z,365
2017-10-03T09:46:46.270Z,385
2017-10-03T09:47:46.585Z,345
2017-10-03T09:48:46.587Z,300
2017-10-03T09:49:46.585Z,305
2017-10-03T09:50:46.579Z,365
2017-10-03T09:51:46.250Z,365
2017-10-03T09:52:46.572Z,370
2017-10-03T09:53:46.565Z,275
2017-10-03T09:54:46.244Z,365
2017-10-03T09:55:46.562Z,385
2017-10-03T09:56:46.238Z,425
2017-10-03T09:57:46.560Z,335
2017-10-03T09:58:46.557Z,430
2017-10-03T09:59:46.234Z,410
2017-10-03T10:00:46.234Z,405
2017-10-03T10:01:46.545Z,385
2017-10-03T10:02:46.225Z,395
2017-10-03T10:03:45.911Z,450
2017-10-03T10:04:46.537Z,480
2017-10-03T10:05:46.537Z,510
2017-10-03T10:06:46.541Z,470
2017-10-03T10:07:46.524Z,455
2017-10-03T10:08:46.208Z,450
2017-10-03T10:09:46.526Z,405
2017-10-03T10:10:46.205Z,420
2017-10-03T10:11:46.516Z,470
2017-10-03T10:12:46.516Z,400
2017-10-03T10:13:46.198Z,345
2017-10-03T10:14:46.192Z,335
2017-10-03T10:15:46.189Z,340
2017-10-03T10:16:45.547Z,335
2017-10-03T10:17:46.190Z,325
2017-10-03T10:18:46.501Z,335
2017-10-03T10:19:46.185Z,330
2017-10-03T10:20:46.495Z,340
2017-10-03T10:21:46.172Z,345
2017-10-03T10:22:46.176Z,385
2017-10-03T10:23:46.517Z,405
2017-10-03T10:24:46.165Z,430
2017-10-03T10:25:46.167Z,350
2017-10-03T10:26:46.170Z,345
2017-10-03T10:27:46.513Z,350
2017-10-03T10:28:46.488Z,340
2017-10-03T10:29:46.156Z,365
2017-10-03T10:30:46.159Z,340
2017-10-03T10:31:46.148Z,355
2017-10-03T10:32:45.835Z,465
2017-10-03T10:33:46.473Z,585
2017-10-03T10:34:46.458Z,650
2017-10-03T10:35:46.140Z,700
2017-10-03T10:36:46.137Z,670
2017-10-03T10:37:46.140Z,645
2017-10-03T10:38:46.133Z,680
2017-10-03T10:39:46.445Z,725
2017-10-03T10:40:46.443Z,655
2017-10-03T10:41:46.440Z,650
2017-10-03T10:42:46.440Z,695
2017-10-03T10:43:46.440Z,660
2017-10-03T10:44:46.654Z,660
2017-10-03T10:45:45.797Z,645
2017-10-03T10:46:46.121Z,595
2017-10-03T10:47:46.429Z,575
2017-10-03T10:48:46.433Z,510
2017-10-03T10:49:45.789Z,445
2017-10-03T10:50:46.431Z,400
2017-10-03T10:51:46.120Z,380
2017-10-03T10:52:45.789Z,390
2017-10-03T10:53:46.107Z,425
2017-10-03T10:54:46.107Z,460
2017-10-03T10:55:46.103Z,505
2017-10-03T10:56:46.425Z,505
2017-10-03T10:57:45.791Z,490
2017-10-03T10:58:46.100Z,465
2017-10-03T10:59:46.426Z,430
2017-10-03T11:00:46.101Z,400
2017-10-03T11:01:46.421Z,365
2017-10-03T11:02:46.095Z,345
2017-10-03T11:03:46.417Z,370
2017-10-03T11:04:46.091Z,405
2017-10-03T11:05:46.433Z,420
2017-10-03T11:06:45.772Z,410
2017-10-03T11:07:46.409Z,375
2017-10-03T11:08:45.771Z,345
2017-10-03T11:09:46.403Z,315
2017-10-03T11:10:46.405Z,300
2017-10-03T11:11:46.406Z,280
2017-10-03T11:12:45.443Z,250
2017-10-03T11:13:46.403Z,230
2017-10-03T11:14:46.404Z,220
2017-10-03T11:15:46.394Z,230
2017-10-03T11:16:46.076Z,240
2017-10-03T11:17:46.406Z,270
2017-10-03T11:18:46.394Z,290
2017-10-03T11:19:46.386Z,280
2017-10-03T11:20:46.061Z,280
2017-10-03T11:21:46.385Z,270
2017-10-03T11:22:46.383Z,255
2017-10-03T11:23:46.057Z,240
2017-10-03T11:24:46.056Z,235
2017-10-03T11:25:45.736Z,230
2017-10-03T11:26:45.735Z,220
2017-10-03T11:27:46.374Z,220
2017-10-03T11:28:46.052Z,225
2017-10-03T11:29:45.724Z,235
2017-10-03T11:30:45.720Z,270
2017-10-03T11:31:46.375Z,325
2017-10-03T11:32:46.354Z,390
2017-10-03T11:33:45.710Z,425
2017-10-03T11:34:46.036Z,400
2017-10-03T11:35:46.025Z,420
2017-10-03T11:36:45.708Z,400
2017-10-03T11:37:46.343Z,350
2017-10-03T11:38:46.020Z,350
2017-10-03T11:39:46.015Z,410
2017-10-03T11:40:46.332Z,415
2017-10-03T11:41:46.011Z,340
2017-10-03T11:42:46.008Z,405
2017-10-03T11:43:46.003Z,445
2017-10-03T11:44:46.001Z,435
2017-10-03T11:45:46.319Z,450
2017-10-03T11:46:45.994Z,455
2017-10-03T11:47:45.996Z,435
2017-10-03T11:48:46.005Z,420
2017-10-03T11:49:46.311Z,385
2017-10-03T11:50:45.982Z,345
2017-10-03T11:51:45.985Z,305
2017-10-03T11:52:46.304Z,285
2017-10-03T11:53:45.979Z,275
2017-10-03T11:54:45.974Z,255
2017-10-03T11:55:45.969Z,250
2017-10-03T11:56:45.967Z,255
2017-10-03T11:57:45.970Z,265
2017-10-03T11:58:45.966Z,260
2017-10-03T11:59:46.284Z,240
2017-10-03T12:00:45.958Z,225
2017-10-03T12:01:45.959Z,205
2017-10-03T12:02:45.958Z,190
2017-10-03T12:03:46.265Z,180
2017-10-03T12:04:45.947Z,170
2017-10-03T12:05:46.259Z,165
2017-10-03T12:06:46.262Z,160
2017-10-03T12:07:46.257Z,155
2017-10-03T12:08:46.250Z,155
2017-10-03T12:09:46.250Z,160
2017-10-03T12:10:46.245Z,160
2017-10-03T12:11:45.918Z,160
2017-10-03T12:12:46.242Z,165
2017-10-03T12:13:45.595Z,175
2017-10-03T12:14:46.231Z,180
2017-10-03T12:15:45.908Z,185
2017-10-03T12:16:46.224Z,185
2017-10-03T12:17:46.217Z,190
2017-10-03T12:18:46.216Z,190
2017-10-03T12:19:46.215Z,190
2017-10-03T12:20:46.208Z,190
2017-10-03T12:21:45.567Z,190
2017-10-03T12:22:45.879Z,200
2017-10-03T12:23:46.208Z,190
2017-10-03T12:24:46.193Z,190
2017-10-03T12:25:46.186Z,190
2017-10-03T12:26:46.192Z,190
2017-10-03T12:27:45.896Z,190
2017-10-03T12:28:46.170Z,190
2017-10-03T12:29:45.847Z,190
2017-10-03T12:30:45.843Z,185
2017-10-03T12:31:45.844Z,185
2017-10-03T12:32:46.156Z,185
2017-10-03T12:33:46.152Z,185
2017-10-03T12:34:45.511Z,185
2017-10-03T12:35:45.849Z,185
2017-10-03T12:36:45.825Z,185
2017-10-03T12:37:46.133Z,185
2017-10-03T12:38:46.124Z,180
2017-10-03T12:39:46.158Z,180
2017-10-03T12:40:45.800Z,180
2017-10-03T12:41:45.799Z,180
2017-10-03T12:42:45.790Z,180
2017-10-03T12:43:45.149Z,180
2017-10-03T12:44:46.100Z,185
2017-10-03T12:45:46.100Z,185
2017-10-03T12:46:45.774Z,185
2017-10-03T12:47:46.086Z,185
2017-10-03T12:48:46.198Z,215
2017-10-03T12:49:46.085Z,225
2017-10-03T12:50:46.078Z,190
2017-10-03T12:51:46.324Z,230
2017-10-03T12:52:45.743Z,240
2017-10-03T12:53:45.742Z,205
2017-10-03T12:54:45.736Z,195
2017-10-03T12:55:46.055Z,195
2017-10-03T12:56:46.056Z,195
2017-10-03T12:57:46.049Z,195
2017-10-03T12:58:46.038Z,190
2017-10-03T12:59:45.717Z,185
2017-10-03T13:00:45.709Z,180
2017-10-03T13:01:46.030Z,180
2017-10-03T13:02:45.702Z,190
2017-10-03T13:03:46.014Z,195
2017-10-03T13:04:45.696Z,185
2017-10-03T13:05:46.012Z,185
2017-10-03T13:06:46.011Z,205
2017-10-03T13:07:45.996Z,205
2017-10-03T13:08:45.682Z,225
2017-10-03T13:09:45.671Z,205
2017-10-03T13:10:45.989Z,185
2017-10-03T13:11:45.984Z,200
2017-10-03T13:12:45.979Z,205
2017-10-03T13:13:45.972Z,220
2017-10-03T13:14:45.647Z,210
2017-10-03T13:15:45.645Z,230
2017-10-03T13:16:45.972Z,220
2017-10-03T13:17:46.258Z,210
2017-10-03T13:18:44.997Z,200
2017-10-03T13:19:45.974Z,205
2017-10-03T13:20:45.946Z,215
2017-10-03T13:21:45.621Z,245
2017-10-03T13:22:45.941Z,270
2017-10-03T13:23:45.295Z,275
2017-10-03T13:24:45.618Z,270
2017-10-03T13:25:45.919Z,275
2017-10-03T13:26:45.602Z,250
2017-10-03T13:27:45.916Z,220
2017-10-03T13:28:45.912Z,175
2017-10-03T13:29:45.272Z,165
2017-10-03T13:30:45.915Z,160
2017-10-03T13:31:45.905Z,170
2017-10-03T13:32:45.578Z,200
2017-10-03T13:33:45.890Z,235
2017-10-03T13:34:45.898Z,265
2017-10-03T13:35:45.880Z,240
2017-10-03T13:36:45.239Z,225
2017-10-03T13:37:45.877Z,255
2017-10-03T13:38:45.552Z,240
2017-10-03T13:39:45.934Z,215
2017-10-03T13:40:45.865Z,250
2017-10-03T13:41:45.865Z,270
2017-10-03T13:42:45.224Z,255
2017-10-03T13:43:45.534Z,225
2017-10-03T13:44:45.212Z,210
2017-10-03T13:45:45.851Z,185
2017-10-03T13:46:44.884Z,165
2017-10-03T13:47:45.849Z,170
2017-10-03T13:48:45.841Z,185
2017-10-03T13:49:45.514Z,210
2017-10-03T13:50:45.831Z,220
2017-10-03T13:51:45.827Z,215
2017-10-03T13:52:45.827Z,205
2017-10-03T13:53:45.879Z,185
2017-10-03T13:54:45.816Z,185
2017-10-03T13:55:45.818Z,210
2017-10-03T13:56:45.812Z,220
2017-10-03T13:57:45.808Z,210
2017-10-03T13:58:45.805Z,200
2017-10-03T13:59:45.797Z,195
2017-10-03T14:00:45.793Z,190
2017-10-03T14:01:45.476Z,185
2017-10-03T14:02:45.468Z,175
2017-10-03T14:03:45.786Z,165
2017-10-03T14:04:45.464Z,155
2017-10-03T14:05:45.784Z,150
2017-10-03T14:06:45.777Z,150
2017-10-03T14:07:45.777Z,150
2017-10-03T14:08:45.766Z,145
2017-10-03T14:09:45.817Z,145